Time;durP1;ratioP1;P1;durP2;ratioP2;P2;SDS_P1;SDS_P2;PMS_P1;PMS_P2;Temp;Humidity;BMP_temperature;BMP_pressure;BME280_temperature;BME280_humidity;BME280_pressure;Samples;Min_cycle;Max_cycle;Signal;HPM_P1;HPM_P2
2021/12/06 00:01:20;;;;;;;15.70;14.00;;;2.80;99.90;;;;;;5015897;28;20180;-67
2021/12/06 00:03:46;;;;;;;17.07;13.83;;;2.80;99.90;;;;;;5015800;28;20198;-67
2021/12/06 00:06:13;;;;;;;23.23;15.37;;;2.70;99.90;;;;;;5015896;28;20176;-67
2021/12/06 00:08:39;;;;;;;19.73;15.27;;;2.70;99.90;;;;;;5015938;28;20199;-67
2021/12/06 00:11:09;;;;;;;18.27;15.17;;;2.70;99.90;;;;;;5015704;28;20203;-67
2021/12/06 00:13:41;;;;;;;19.70;15.23;;;2.70;99.90;;;;;;5015815;28;20186;-67
2021/12/06 00:16:12;;;;;;;19.80;15.53;;;2.70;99.90;;;;;;5015370;28;20179;-67
2021/12/06 00:18:38;;;;;;;21.30;15.07;;;2.60;99.90;;;;;;5015809;28;20199;-67
2021/12/06 00:21:05;;;;;;;17.63;15.03;;;2.60;99.90;;;;;;4998108;28;20493;-66
2021/12/06 00:23:31;;;;;;;18.03;14.80;;;2.50;99.90;;;;;;5015484;28;20176;-67
2021/12/06 00:25:57;;;;;;;22.50;15.20;;;2.50;99.90;;;;;;5015256;28;20654;-67
2021/12/06 00:28:23;;;;;;;21.97;15.63;;;2.50;99.90;;;;;;4997506;28;20180;-66
2021/12/06 00:30:50;;;;;;;15.93;14.23;;;2.40;99.90;;;;;;4997466;28;20183;-66
2021/12/06 00:33:16;;;;;;;24.90;14.90;;;2.30;99.90;;;;;;5015033;28;20192;-67
2021/12/06 00:35:42;;;;;;;18.93;15.47;;;2.30;99.90;;;;;;5015024;28;20184;-67
2021/12/06 00:38:08;;;;;;;18.27;14.77;;;2.20;99.90;;;;;;5014884;28;20199;-67
2021/12/06 00:40:44;;;;;;;18.77;14.80;;;2.10;99.90;;;;;;5014864;28;20178;-67
2021/12/06 00:43:10;;;;;;;17.13;14.70;;;2.10;99.90;;;;;;4997550;28;20195;-67
2021/12/06 00:45:37;;;;;;;17.37;14.10;;;2.00;99.90;;;;;;5014806;28;20179;-67
2021/12/06 00:48:03;;;;;;;16.90;13.27;;;1.90;99.90;;;;;;4997313;28;20260;-67
2021/12/06 00:50:33;;;;;;;17.43;14.80;;;1.80;99.90;;;;;;5013811;28;20230;-67
2021/12/06 00:52:58;;;;;;;16.27;14.57;;;1.80;99.90;;;;;;5015080;28;20195;-67
2021/12/06 00:55:24;;;;;;;16.23;14.13;;;1.70;99.90;;;;;;5014978;28;20176;-67
2021/12/06 00:57:53;;;;;;;17.27;14.30;;;1.60;99.90;;;;;;5014597;28;20285;-66
2021/12/06 01:00:41;;;;;;;19.77;15.03;;;1.60;99.90;;;;;;4997577;28;20180;-66
2021/12/06 01:03:13;;;;;;;17.17;14.87;;;1.70;99.90;;;;;;5016267;28;20212;-67
2021/12/06 01:05:39;;;;;;;19.03;14.97;;;1.60;99.90;;;;;;5016690;28;20160;-67
2021/12/06 01:08:05;;;;;;;20.13;16.00;;;1.50;99.90;;;;;;5015617;28;20243;-67
2021/12/06 01:10:32;;;;;;;18.53;14.83;;;1.50;99.90;;;;;;5015735;28;20194;-67
2021/12/06 01:12:58;;;;;;;20.57;14.87;;;1.50;99.90;;;;;;5015315;28;20203;-67
2021/12/06 01:15:25;;;;;;;19.97;14.97;;;1.50;99.90;;;;;;5015533;28;20191;-66
2021/12/06 01:17:51;;;;;;;22.07;15.77;;;1.50;99.90;;;;;;5014373;28;20213;-66
2021/12/06 01:20:22;;;;;;;17.93;15.07;;;1.50;99.90;;;;;;4996673;28;20179;-67
2021/12/06 01:22:54;;;;;;;16.90;14.20;;;1.40;99.90;;;;;;5015131;28;20576;-66
2021/12/06 01:41:34;;;;;;;15.67;13.97;;;1.00;99.90;;;;;;5014507;28;20198;-67
2021/12/06 01:44:17;;;;;;;19.10;14.13;;;1.00;99.90;;;;;;4996337;28;20179;-67
2021/12/06 01:47:08;;;;;;;17.50;15.20;;;1.00;99.90;;;;;;5013878;28;20243;-67
2021/12/06 01:49:38;;;;;;;16.43;14.60;;;0.90;99.90;;;;;;5014069;28;20156;-67
2021/12/06 01:52:10;;;;;;;19.47;15.47;;;0.90;99.90;;;;;;4996265;28;20242;-67
2021/12/06 01:54:36;;;;;;;17.03;15.20;;;0.80;99.90;;;;;;5013983;28;20182;-67
2021/12/06 01:57:02;;;;;;;18.67;16.30;;;0.80;99.90;;;;;;5013490;28;20204;-67
2021/12/06 01:59:28;;;;;;;17.67;15.83;;;0.80;99.90;;;;;;5013570;28;20179;-67
2021/12/06 02:01:55;;;;;;;17.93;15.17;;;0.70;99.90;;;;;;4996084;28;20204;-66
2021/12/06 02:04:21;;;;;;;17.53;15.50;;;0.80;99.90;;;;;;5013465;28;20215;-67
2021/12/06 02:06:47;;;;;;;17.27;15.47;;;0.70;99.90;;;;;;4996422;28;20172;-67
2021/12/06 02:09:17;;;;;;;20.47;16.87;;;0.60;99.90;;;;;;5013669;28;20234;-67
2021/12/06 02:11:44;;;;;;;18.90;15.27;;;0.50;99.90;;;;;;5013329;28;20279;-67
2021/12/06 02:14:26;;;;;;;17.67;15.83;;;0.50;99.90;;;;;;5013335;28;20179;-66
2021/12/06 02:19:38;;;;;;;20.03;16.53;;;0.50;99.90;;;;;;5013440;28;20156;-67
2021/12/06 02:22:05;;;;;;;18.27;15.60;;;0.50;99.90;;;;;;5013461;28;20183;-67
2021/12/06 02:24:32;;;;;;;21.33;17.13;;;0.50;99.90;;;;;;5013194;28;20274;-67
2021/12/06 02:26:59;;;;;;;21.53;15.27;;;0.40;99.90;;;;;;5013531;28;20172;-67
2021/12/06 02:29:25;;;;;;;17.43;15.63;;;0.30;99.90;;;;;;5014252;28;20548;-67
2021/12/06 02:31:52;;;;;;;19.87;15.10;;;0.30;99.90;;;;;;5013210;28;20211;-66
2021/12/06 02:34:17;;;;;;;19.83;16.50;;;0.30;99.90;;;;;;5013146;28;20168;-67
2021/12/06 02:36:46;;;;;;;18.73;15.10;;;0.20;99.90;;;;;;4995455;28;20186;-67
2021/12/06 02:39:19;;;;;;;18.40;15.53;;;0.10;99.90;;;;;;4995411;28;20180;-66
2021/12/06 02:41:48;;;;;;;15.77;13.93;;;0.10;99.90;;;;;;4995591;28;20191;-68
2021/12/06 02:44:14;;;;;;;16.50;14.33;;;0.00;99.90;;;;;;5013087;28;20168;-66
2021/12/06 02:46:40;;;;;;;15.77;14.07;;;0.00;99.90;;;;;;5013346;28;20181;-67
2021/12/06 02:49:06;;;;;;;19.37;14.93;;;0.00;99.90;;;;;;5013024;28;20171;-67
2021/12/06 02:51:32;;;;;;;16.97;15.13;;;-0.10;99.90;;;;;;5012946;28;20191;-66
2021/12/06 02:53:58;;;;;;;22.47;14.97;;;-0.10;99.90;;;;;;4995427;28;20592;-66
2021/12/06 02:56:39;;;;;;;16.13;14.37;;;-0.20;99.90;;;;;;4995281;28;20175;-66
2021/12/06 02:59:09;;;;;;;18.00;15.33;;;-0.10;99.90;;;;;;5012974;28;20168;-66
2021/12/06 03:02:05;;;;;;;20.20;14.67;;;0.00;99.90;;;;;;5013183;28;20196;-66
2021/12/06 03:04:31;;;;;;;19.67;15.33;;;0.10;99.90;;;;;;4993812;28;20208;-66
2021/12/06 03:06:58;;;;;;;18.23;16.07;;;0.20;99.90;;;;;;5013170;28;20199;-66
2021/12/06 03:09:28;;;;;;;20.53;16.17;;;0.20;99.90;;;;;;5013081;28;20172;-63
2021/12/06 03:12:12;;;;;;;21.33;16.40;;;0.40;99.90;;;;;;5013056;28;20203;-63
2021/12/06 03:14:44;;;;;;;24.90;16.20;;;0.50;99.90;;;;;;5016445;28;20155;-63
2021/12/06 03:17:14;;;;;;;32.00;17.23;;;0.40;99.90;;;;;;5016742;28;20253;-63
2021/12/06 03:19:41;;;;;;;24.17;15.97;;;0.30;99.90;;;;;;4998972;28;20180;-63
2021/12/06 03:22:10;;;;;;;32.07;17.30;;;0.30;99.90;;;;;;5017133;28;20207;-63
2021/12/06 03:24:36;;;;;;;28.30;16.30;;;0.20;99.90;;;;;;5016723;28;20183;-63
2021/12/06 03:27:02;;;;;;;33.07;16.50;;;0.10;99.90;;;;;;5016579;28;20183;-63
2021/12/06 03:29:29;;;;;;;28.43;16.93;;;0.10;99.90;;;;;;5016741;28;20180;-63
2021/12/06 03:31:55;;;;;;;23.03;14.70;;;0.00;99.90;;;;;;4999014;28;20203;-63
2021/12/06 03:34:26;;;;;;;28.00;17.00;;;0.00;99.90;;;;;;5016303;28;20655;-63
2021/12/06 03:36:52;;;;;;;23.23;16.23;;;-0.10;99.90;;;;;;5016409;28;20167;-63
2021/12/06 03:39:23;;;;;;;17.13;15.33;;;-0.20;99.90;;;;;;4998545;28;20180;-63
2021/12/06 03:41:52;;;;;;;21.37;16.83;;;-0.10;99.90;;;;;;4998474;28;20199;-62
2021/12/06 03:44:20;;;;;;;34.50;17.37;;;0.00;99.90;;;;;;5016061;28;20175;-63
2021/12/06 03:46:47;;;;;;;25.10;16.63;;;0.00;99.90;;;;;;5016290;28;20180;-63
2021/12/06 03:49:14;;;;;;;23.27;15.60;;;0.00;99.90;;;;;;5016037;28;20176;-63
2021/12/06 03:51:43;;;;;;;24.10;15.93;;;0.00;99.90;;;;;;5016222;28;20591;-63
2021/12/06 03:54:11;;;;;;;39.40;16.60;;;0.00;99.90;;;;;;5015961;28;20222;-63
2021/12/06 03:56:38;;;;;;;37.07;16.60;;;-0.10;99.90;;;;;;5016137;28;20576;-63
2021/12/06 03:59:04;;;;;;;32.30;15.93;;;-0.10;99.90;;;;;;5016174;28;20207;-63
2021/12/06 04:01:31;;;;;;;25.40;15.50;;;-0.10;99.90;;;;;;5015674;28;20191;-63
2021/12/06 04:03:58;;;;;;;20.33;15.90;;;0.00;99.90;;;;;;4998014;28;20202;-63
2021/12/06 04:06:24;;;;;;;20.10;15.67;;;0.00;99.90;;;;;;5015626;28;20176;-63
2021/12/06 04:08:50;;;;;;;18.23;15.63;;;0.10;99.90;;;;;;5015654;28;20196;-63
2021/12/06 04:11:16;;;;;;;17.77;15.30;;;0.00;99.90;;;;;;5015593;28;20183;-63
2021/12/06 04:13:42;;;;;;;22.47;15.87;;;0.00;99.90;;;;;;5015491;28;20551;-63
2021/12/06 04:16:08;;;;;;;18.70;15.93;;;0.10;99.90;;;;;;5015585;28;20176;-63
2021/12/06 04:18:34;;;;;;;22.67;15.97;;;0.20;99.90;;;;;;5015673;28;20200;-63
2021/12/06 04:21:00;;;;;;;22.00;15.87;;;0.20;99.90;;;;;;5015419;28;20658;-63
2021/12/06 04:23:26;;;;;;;26.00;16.60;;;0.10;99.90;;;;;;5015132;28;20195;-63
2021/12/06 04:25:52;;;;;;;20.90;15.77;;;0.10;99.90;;;;;;4997533;28;20563;-63
2021/12/06 04:28:19;;;;;;;17.53;15.63;;;0.10;99.90;;;;;;5015213;28;20184;-63
2021/12/06 04:30:46;;;;;;;19.63;15.93;;;0.10;99.90;;;;;;5015788;28;20179;-63
2021/12/06 04:33:13;;;;;;;20.93;15.63;;;0.10;99.90;;;;;;5015127;28;20375;-63
2021/12/06 04:35:41;;;;;;;20.77;14.87;;;0.10;99.90;;;;;;4997402;28;20272;-63
2021/12/06 04:38:08;;;;;;;19.80;16.33;;;0.10;99.90;;;;;;4997378;28;20270;-62
2021/12/06 04:40:34;;;;;;;24.57;15.97;;;0.10;99.90;;;;;;5015012;28;20164;-63
2021/12/06 04:43:00;;;;;;;18.87;16.50;;;0.10;99.90;;;;;;5015124;28;20199;-63
2021/12/06 04:45:26;;;;;;;22.97;16.40;;;0.10;99.90;;;;;;5015192;28;20179;-63
2021/12/06 04:47:53;;;;;;;24.73;16.40;;;0.00;99.90;;;;;;4997152;28;20653;-63
2021/12/06 04:50:23;;;;;;;19.17;15.87;;;0.10;99.90;;;;;;5014929;28;20188;-63
2021/12/06 04:52:50;;;;;;;24.10;16.10;;;0.10;99.90;;;;;;5014848;28;20288;-63
2021/12/06 04:55:30;;;;;;;17.70;15.23;;;0.10;99.90;;;;;;5014973;28;20188;-63
2021/12/06 04:57:56;;;;;;;20.43;15.63;;;0.20;99.90;;;;;;5014948;28;20198;-63
2021/12/06 05:00:36;;;;;;;17.90;15.70;;;0.30;99.90;;;;;;4996989;28;20190;-63
2021/12/06 05:03:06;;;;;;;24.93;16.63;;;0.30;99.90;;;;;;4996788;28;20223;-63
2021/12/06 05:05:46;;;;;;;18.27;15.37;;;0.40;99.90;;;;;;5014627;28;20238;-63
2021/12/06 05:08:22;;;;;;;20.17;15.30;;;0.40;99.90;;;;;;5014498;28;20199;-62
2021/12/06 05:10:48;;;;;;;20.20;15.30;;;0.40;99.90;;;;;;5014790;28;20171;-63
2021/12/06 05:13:13;;;;;;;19.00;15.70;;;0.40;99.90;;;;;;5014255;28;20302;-62
2021/12/06 05:15:39;;;;;;;21.50;15.43;;;0.40;99.90;;;;;;5014345;28;20242;-62
2021/12/06 05:18:05;;;;;;;22.77;15.77;;;0.40;99.90;;;;;;5014454;28;20210;-63
2021/12/06 05:20:32;;;;;;;19.53;15.03;;;0.40;99.90;;;;;;5014187;28;20176;-63
2021/12/06 05:22:58;;;;;;;19.77;15.40;;;0.40;99.90;;;;;;5015025;28;20204;-63
2021/12/06 05:25:25;;;;;;;21.90;15.97;;;0.30;99.90;;;;;;5014163;28;20175;-62
2021/12/06 05:27:52;;;;;;;28.03;15.90;;;0.20;99.90;;;;;;5014193;28;20238;-63
2021/12/06 05:30:21;;;;;;;16.30;14.57;;;0.10;99.90;;;;;;5014680;28;20638;-63
2021/12/06 05:32:48;;;;;;;27.10;15.20;;;0.00;99.90;;;;;;5014173;28;20250;-62
2021/12/06 05:35:15;;;;;;;18.13;15.37;;;-0.10;99.90;;;;;;5014243;28;20279;-63
2021/12/06 05:37:45;;;;;;;24.20;17.60;;;-0.10;99.90;;;;;;5013844;28;20230;-63
2021/12/06 05:40:16;;;;;;;21.30;15.77;;;-0.20;99.90;;;;;;5014612;28;20210;-62
2021/12/06 05:42:42;;;;;;;26.53;16.90;;;-0.30;99.90;;;;;;5014132;28;20195;-61
2021/12/06 05:45:09;;;;;;;17.43;15.30;;;-0.30;99.90;;;;;;5014532;28;20156;-61
2021/12/06 05:47:35;;;;;;;17.57;15.83;;;-0.20;99.90;;;;;;5014057;28;20176;-62
2021/12/06 05:50:01;;;;;;;20.20;16.37;;;-0.10;99.90;;;;;;5014258;28;20518;-62
2021/12/06 05:52:26;;;;;;;35.17;17.33;;;-0.10;99.90;;;;;;5014846;28;20207;-62
2021/12/06 05:54:52;;;;;;;25.33;16.40;;;-0.10;99.90;;;;;;5013963;28;20180;-63
2021/12/06 05:57:18;;;;;;;21.10;15.20;;;-0.20;99.90;;;;;;4996245;28;20288;-62
2021/12/06 05:59:44;;;;;;;21.67;15.97;;;-0.20;99.90;;;;;;4996240;28;20523;-62
2021/12/06 06:02:11;;;;;;;21.43;16.10;;;-0.20;99.90;;;;;;5013811;28;20192;-62
2021/12/06 06:04:37;;;;;;;29.17;16.67;;;-0.10;99.90;;;;;;5013820;28;20188;-62
2021/12/06 06:07:05;;;;;;;25.83;15.63;;;-0.30;99.90;;;;;;5014073;28;20631;-63
2021/12/06 06:09:30;;;;;;;32.67;17.17;;;-0.40;99.90;;;;;;5013759;28;20182;-62
2021/12/06 06:11:56;;;;;;;26.87;14.63;;;-0.40;99.90;;;;;;5013839;28;20279;-63
2021/12/06 06:14:22;;;;;;;31.87;16.40;;;-0.40;99.90;;;;;;5013860;28;20176;-63
2021/12/06 06:16:50;;;;;;;23.80;16.20;;;-0.40;99.90;;;;;;5013578;28;20182;-62
2021/12/06 06:19:21;;;;;;;32.60;16.37;;;-0.30;99.90;;;;;;5013623;28;20175;-62
2021/12/06 06:21:48;;;;;;;20.87;15.23;;;-0.30;99.90;;;;;;4995930;28;20209;-63
2021/12/06 06:24:14;;;;;;;21.30;15.53;;;-0.40;99.90;;;;;;5013775;28;20172;-63
2021/12/06 06:26:40;;;;;;;23.80;16.47;;;-0.40;99.90;;;;;;5013529;28;20175;-63
2021/12/06 06:29:08;;;;;;;24.10;15.30;;;-0.40;99.90;;;;;;5013446;28;20183;-62
2021/12/06 06:31:34;;;;;;;25.90;16.07;;;-0.40;99.90;;;;;;5013374;28;20573;-62
2021/12/06 06:34:00;;;;;;;25.53;16.10;;;-0.30;99.90;;;;;;5013449;28;20642;-64
2021/12/06 06:36:25;;;;;;;35.27;16.13;;;-0.40;99.90;;;;;;5013653;28;20175;-62
2021/12/06 06:38:51;;;;;;;22.27;14.83;;;-0.40;99.90;;;;;;5013301;28;20210;-62
2021/12/06 06:41:17;;;;;;;20.97;15.07;;;-0.30;99.90;;;;;;5013461;28;20168;-62
2021/12/06 06:43:42;;;;;;;25.07;16.00;;;-0.40;99.90;;;;;;5013458;28;20173;-62
2021/12/06 06:46:09;;;;;;;21.13;15.60;;;-0.40;99.90;;;;;;5013707;28;20206;-62
2021/12/06 06:48:34;;;;;;;20.60;15.67;;;-0.40;99.90;;;;;;5015384;28;20172;-62
2021/12/06 06:51:01;;;;;;;23.00;17.07;;;-0.30;99.90;;;;;;4999715;28;20191;-63
2021/12/06 06:53:27;;;;;;;40.83;17.50;;;-0.30;99.90;;;;;;5017181;28;20196;-63
2021/12/06 06:55:54;;;;;;;52.53;18.83;;;-0.40;99.90;;;;;;5017196;28;20172;-63
2021/12/06 06:58:20;;;;;;;66.67;18.67;;;-0.40;99.90;;;;;;5017390;28;20203;-63
2021/12/06 07:00:46;;;;;;;59.70;18.27;;;-0.50;99.90;;;;;;5017421;28;20505;-63
2021/12/06 07:03:12;;;;;;;94.30;18.17;;;-0.70;99.90;;;;;;4999392;28;20685;-63
2021/12/06 07:05:39;;;;;;;65.63;17.33;;;-0.80;99.90;;;;;;5017207;28;20251;-63
2021/12/06 07:08:05;;;;;;;32.03;16.07;;;-0.80;99.90;;;;;;5017273;28;20225;-63
2021/12/06 07:10:31;;;;;;;20.67;13.97;;;-0.80;99.90;;;;;;5017344;28;20195;-62
2021/12/06 07:13:00;;;;;;;16.93;14.37;;;-0.70;99.90;;;;;;5016838;28;20295;-62
2021/12/06 07:15:30;;;;;;;34.20;15.37;;;-0.60;99.90;;;;;;5017087;28;20176;-63
2021/12/06 07:17:56;;;;;;;23.13;14.23;;;-0.40;99.90;;;;;;5016660;28;20700;-62
2021/12/06 07:20:23;;;;;;;23.53;14.97;;;-0.40;99.90;;;;;;5016790;28;20203;-62
2021/12/06 07:22:52;;;;;;;26.73;15.90;;;-0.30;99.90;;;;;;5016659;28;20195;-62
2021/12/06 07:25:20;;;;;;;39.47;17.13;;;-0.30;99.90;;;;;;4999048;28;20258;-63
2021/12/06 07:27:47;;;;;;;43.97;16.03;;;-0.20;99.90;;;;;;5016876;28;20179;-62
2021/12/06 07:30:14;;;;;;;29.33;14.93;;;-0.20;99.90;;;;;;5016843;28;20665;-62
2021/12/06 07:32:41;;;;;;;25.47;15.67;;;-0.20;99.90;;;;;;5016667;28;20199;-62
2021/12/06 07:35:08;;;;;;;39.97;16.23;;;-0.30;99.90;;;;;;5016447;28;20233;-62
2021/12/06 07:37:34;;;;;;;23.53;14.60;;;-0.40;99.90;;;;;;4998773;28;20208;-62
2021/12/06 07:40:01;;;;;;;29.87;15.50;;;-0.40;99.90;;;;;;5016256;28;20178;-62
2021/12/06 07:42:26;;;;;;;28.37;15.57;;;-0.40;99.90;;;;;;5016400;28;20222;-62
2021/12/06 07:44:52;;;;;;;17.07;14.03;;;-0.40;99.90;;;;;;5016372;28;20203;-62
2021/12/06 07:47:19;;;;;;;28.00;14.87;;;-0.40;99.90;;;;;;5016427;28;20175;-62
2021/12/06 07:49:45;;;;;;;24.17;14.57;;;-0.40;99.90;;;;;;5016448;28;20646;-62
2021/12/06 07:52:12;;;;;;;34.10;15.77;;;-0.50;99.90;;;;;;5016003;28;20200;-62
2021/12/06 07:54:39;;;;;;;30.47;15.53;;;-0.50;99.90;;;;;;5016361;28;20176;-62
2021/12/06 07:57:06;;;;;;;25.80;15.60;;;-0.50;99.90;;;;;;5016195;28;20188;-62
2021/12/06 07:59:33;;;;;;;31.10;15.73;;;-0.50;99.90;;;;;;5016151;28;20222;-62
2021/12/06 08:01:59;;;;;;;32.87;16.30;;;-0.50;99.90;;;;;;5016181;28;20659;-62
2021/12/06 08:04:25;;;;;;;19.50;15.20;;;-0.60;99.90;;;;;;5015808;28;20275;-62
2021/12/06 08:06:51;;;;;;;24.17;15.30;;;-0.60;99.90;;;;;;5016139;28;20176;-62
2021/12/06 08:09:17;;;;;;;24.43;16.80;;;-0.50;99.90;;;;;;5015856;28;20230;-62
2021/12/06 08:11:43;;;;;;;23.83;15.83;;;-0.50;99.90;;;;;;5015718;28;20816;-62
2021/12/06 08:14:10;;;;;;;20.57;14.83;;;-0.40;99.90;;;;;;5015906;28;20530;-62
2021/12/06 08:16:40;;;;;;;21.03;16.53;;;-0.50;99.90;;;;;;4998147;28;20176;-62
2021/12/06 08:19:07;;;;;;;30.33;16.47;;;-0.50;99.90;;;;;;5015929;28;20188;-62
2021/12/06 08:21:33;;;;;;;29.87;16.37;;;-0.50;99.90;;;;;;5015791;28;20194;-62
2021/12/06 08:24:00;;;;;;;24.87;15.90;;;-0.50;99.90;;;;;;5015583;28;20176;-62
2021/12/06 08:26:30;;;;;;;22.57;15.60;;;-0.50;99.90;;;;;;5015579;28;20172;-62
2021/12/06 08:28:57;;;;;;;26.40;15.70;;;-0.50;99.90;;;;;;5016090;28;20634;-62
2021/12/06 08:31:23;;;;;;;28.93;16.27;;;-0.40;99.90;;;;;;5015709;28;20176;-62
2021/12/06 08:33:51;;;;;;;24.43;16.23;;;-0.40;99.90;;;;;;5015331;28;20207;-62
2021/12/06 08:36:18;;;;;;;35.13;18.17;;;-0.30;99.90;;;;;;4997689;28;20176;-62
2021/12/06 08:38:44;;;;;;;39.70;18.60;;;-0.50;99.90;;;;;;5015283;28;20203;-62
2021/12/06 08:41:23;;;;;;;32.60;20.20;;;-0.60;99.90;;;;;;5015993;28;20560;-63
2021/12/06 08:43:49;;;;;;;39.00;20.77;;;-0.70;99.90;;;;;;5015620;28;20686;-62
2021/12/06 08:46:23;;;;;;;30.03;18.97;;;-0.60;99.90;;;;;;5015184;28;20179;-62
2021/12/06 08:48:50;;;;;;;43.23;21.13;;;-0.60;99.90;;;;;;5015271;28;20168;-62
2021/12/06 08:51:39;;;;;;;40.87;21.77;;;-0.50;99.90;;;;;;5015011;28;20175;-62
2021/12/06 08:54:07;;;;;;;31.77;19.77;;;-0.60;99.90;;;;;;5015369;28;20247;-62
2021/12/06 08:56:33;;;;;;;30.33;19.60;;;-0.70;99.90;;;;;;5014948;28;20546;-62
2021/12/06 08:58:59;;;;;;;27.40;17.90;;;-0.70;99.90;;;;;;5014876;28;20235;-62
2021/12/06 09:01:26;;;;;;;25.20;17.80;;;-0.70;99.90;;;;;;5015147;28;20216;-62
2021/12/06 09:03:52;;;;;;;33.23;18.37;;;-0.60;99.90;;;;;;5014839;28;20184;-62
2021/12/06 09:06:18;;;;;;;29.17;19.43;;;-0.60;99.90;;;;;;5015075;28;20172;-62
2021/12/06 09:08:44;;;;;;;28.07;17.10;;;-0.60;99.90;;;;;;5015162;28;20187;-62
2021/12/06 09:11:11;;;;;;;28.33;19.17;;;-0.60;99.90;;;;;;5013906;28;20168;-63
2021/12/06 09:13:39;;;;;;;21.60;15.77;;;-0.40;99.90;;;;;;5014737;28;20183;-62
2021/12/06 09:16:07;;;;;;;23.40;15.53;;;-0.30;99.90;;;;;;5014695;28;20172;-62
2021/12/06 09:18:37;;;;;;;21.33;15.10;;;-0.20;99.90;;;;;;5014447;28;20747;-62
2021/12/06 09:21:07;;;;;;;24.33;16.40;;;-0.10;99.90;;;;;;5014830;28;20253;-62
2021/12/06 09:23:34;;;;;;;21.60;13.80;;;-0.20;99.90;;;;;;5014448;28;20204;-62
2021/12/06 09:26:00;;;;;;;15.43;13.83;;;-0.20;99.90;;;;;;5014421;28;20654;-62
2021/12/06 09:28:28;;;;;;;18.63;14.63;;;-0.10;99.90;;;;;;5014336;28;20176;-62
2021/12/06 09:30:54;;;;;;;17.87;14.20;;;0.00;99.90;;;;;;5014848;28;20206;-62
2021/12/06 09:33:22;;;;;;;37.00;15.77;;;0.10;99.90;;;;;;4996595;28;20231;-62
2021/12/06 09:35:49;;;;;;;40.23;14.53;;;0.00;99.90;;;;;;5014502;28;20172;-62
2021/12/06 09:38:18;;;;;;;30.97;14.20;;;-0.20;99.90;;;;;;5014152;28;20282;-62
2021/12/06 09:40:48;;;;;;;24.70;14.23;;;-0.30;99.90;;;;;;4996575;28;20179;-62
2021/12/06 09:43:15;;;;;;;26.23;13.50;;;-0.40;99.90;;;;;;5014102;28;20287;-62
2021/12/06 09:45:43;;;;;;;21.27;13.40;;;-0.40;99.90;;;;;;4996474;28;20688;-62
2021/12/06 09:48:09;;;;;;;24.40;13.70;;;-0.30;99.90;;;;;;4996436;28;20176;-62
2021/12/06 09:50:43;;;;;;;21.47;14.70;;;-0.20;99.90;;;;;;4996398;28;20658;-62
2021/12/06 09:53:12;;;;;;;22.80;14.53;;;-0.10;99.90;;;;;;5013943;28;20249;-62
2021/12/06 09:55:40;;;;;;;25.73;13.83;;;0.00;99.90;;;;;;5013955;28;20262;-62
2021/12/06 09:58:06;;;;;;;16.00;12.60;;;0.10;99.90;;;;;;4996212;28;20678;-62
2021/12/06 10:00:38;;;;;;;18.90;15.70;;;0.20;99.90;;;;;;5013878;28;20223;-62
2021/12/06 10:03:04;;;;;;;19.13;14.63;;;0.30;99.90;;;;;;5014064;28;20586;-62
2021/12/06 10:05:30;;;;;;;18.37;14.97;;;0.30;99.90;;;;;;5013740;28;20175;-62
2021/12/06 10:07:59;;;;;;;18.07;14.30;;;0.40;99.90;;;;;;5014034;28;20663;-62
2021/12/06 10:10:27;;;;;;;20.80;15.43;;;0.50;99.90;;;;;;5014342;28;20275;-62
2021/12/06 10:12:55;;;;;;;18.43;15.30;;;0.60;99.90;;;;;;5013659;28;20204;-62
2021/12/06 10:15:27;;;;;;;19.40;15.73;;;0.70;99.90;;;;;;5013931;28;20187;-62
2021/12/06 10:17:55;;;;;;;20.27;16.67;;;0.80;99.90;;;;;;5013895;28;20621;-62
2021/12/06 10:20:23;;;;;;;23.07;15.90;;;1.10;99.90;;;;;;5013643;28;20194;-62
2021/12/06 10:22:51;;;;;;;19.77;14.97;;;1.20;99.90;;;;;;5013461;28;20278;-62
2021/12/06 10:25:17;;;;;;;24.30;16.47;;;1.30;99.90;;;;;;4995992;28;20175;-62
2021/12/06 10:28:01;;;;;;;26.60;19.00;;;1.40;99.90;;;;;;5013817;28;20188;-63
2021/12/06 10:30:27;;;;;;;23.27;16.93;;;1.40;99.90;;;;;;5013795;28;20164;-62
2021/12/06 10:33:23;;;;;;;25.83;16.97;;;1.30;99.90;;;;;;4995886;28;20209;-62
2021/12/06 10:35:52;;;;;;;19.03;16.33;;;1.30;99.90;;;;;;4997613;28;20283;-63
2021/12/06 10:38:28;;;;;;;23.37;18.03;;;1.40;99.90;;;;;;5013387;28;20231;-63
2021/12/06 10:41:06;;;;;;;22.10;15.90;;;1.50;99.90;;;;;;4995914;28;20259;-63
2021/12/06 10:43:34;;;;;;;16.33;14.10;;;1.60;99.90;;;;;;5013404;28;20191;-63
2021/12/06 10:46:01;;;;;;;22.13;15.23;;;1.60;99.90;;;;;;4995738;28;20186;-63
2021/12/06 10:48:28;;;;;;;17.93;14.23;;;1.70;99.90;;;;;;4995741;28;20180;-62
2021/12/06 10:50:54;;;;;;;17.90;15.07;;;1.70;99.90;;;;;;4995743;28;20594;-62
2021/12/06 10:53:37;;;;;;;18.93;15.37;;;1.70;99.90;;;;;;5013303;28;20226;-62
2021/12/06 10:56:04;;;;;;;19.97;15.50;;;1.80;99.90;;;;;;5013935;28;20175;-62
2021/12/06 10:58:31;;;;;;;19.43;15.73;;;1.90;99.90;;;;;;5013391;28;20227;-63
2021/12/06 11:01:07;;;;;;;18.83;15.87;;;2.10;99.90;;;;;;5013289;28;20179;-62
2021/12/06 11:03:41;;;;;;;18.20;15.20;;;2.10;99.90;;;;;;4995508;28;20611;-63
2021/12/06 11:06:16;;;;;;;19.70;15.17;;;2.10;99.90;;;;;;5013825;28;20153;-63
2021/12/06 11:08:42;;;;;;;18.47;14.50;;;2.20;99.90;;;;;;4995812;28;20232;-63
2021/12/06 11:11:13;;;;;;;17.23;14.17;;;2.50;99.90;;;;;;5013296;28;20180;-63
2021/12/06 11:13:46;;;;;;;18.00;14.60;;;2.50;99.90;;;;;;5013865;28;20164;-63
2021/12/06 11:16:20;;;;;;;18.60;16.00;;;2.50;99.90;;;;;;5013509;28;20247;-63
2021/12/06 11:18:48;;;;;;;17.53;15.10;;;2.60;99.90;;;;;;5013512;28;20199;-63
2021/12/06 11:21:22;;;;;;;19.90;15.77;;;2.50;99.90;;;;;;5013238;28;20171;-63
2021/12/06 11:24:04;;;;;;;16.63;14.47;;;2.60;99.90;;;;;;5013292;28;20203;-63
2021/12/06 11:26:31;;;;;;;17.60;15.47;;;2.90;99.90;;;;;;5013395;28;20615;-63
2021/12/06 11:29:04;;;;;;;17.47;14.57;;;3.10;99.90;;;;;;5012872;28;20674;-63
2021/12/06 11:31:30;;;;;;;15.00;13.20;;;3.30;99.90;;;;;;5013185;28;20200;-63
2021/12/06 11:34:02;;;;;;;15.83;14.13;;;3.50;99.90;;;;;;5014092;28;20504;-63
2021/12/06 11:36:30;;;;;;;17.17;13.00;;;3.90;99.90;;;;;;5016781;28;20714;-63
2021/12/06 11:39:11;;;;;;;16.83;13.63;;;4.20;99.90;;;;;;5016949;28;20541;-63
2021/12/06 11:41:44;;;;;;;15.30;12.83;;;4.50;99.90;;;;;;5016716;28;20195;-63
2021/12/06 11:44:15;;;;;;;15.53;13.43;;;4.50;99.90;;;;;;5016705;28;20236;-63
2021/12/06 11:46:41;;;;;;;14.37;12.23;;;4.80;99.90;;;;;;5016455;28;20167;-63
2021/12/06 11:49:38;;;;;;;15.20;11.83;;;4.90;99.90;;;;;;4998744;28;20237;-63
2021/12/06 11:52:06;;;;;;;13.20;11.90;;;5.20;99.90;;;;;;5016725;28;20286;-63
2021/12/06 11:54:42;;;;;;;14.40;12.40;;;5.20;99.90;;;;;;5016911;28;20203;-63
2021/12/06 11:57:33;;;;;;;15.50;12.63;;;5.30;99.90;;;;;;5016685;28;20218;-63
2021/12/06 12:00:11;;;;;;;14.13;12.10;;;5.40;99.90;;;;;;5007258;28;20242;-63
2021/12/06 12:02:47;;;;;;;13.17;11.70;;;5.60;99.90;;;;;;5016110;28;20211;-63
2021/12/06 12:05:26;;;;;;;13.10;11.70;;;5.60;99.90;;;;;;5016426;28;20239;-63
2021/12/06 12:07:57;;;;;;;13.13;10.77;;;5.40;99.90;;;;;;4998363;28;20233;-63
2021/12/06 12:10:44;;;;;;;13.83;11.43;;;5.20;99.90;;;;;;5015910;28;20180;-63
2021/12/06 12:13:14;;;;;;;13.97;11.70;;;5.10;99.90;;;;;;5015814;28;20191;-63
2021/12/06 12:15:40;;;;;;;14.57;11.70;;;4.80;99.90;;;;;;5015857;28;20184;-63
2021/12/06 12:18:07;;;;;;;16.00;13.13;;;4.70;99.90;;;;;;5015962;28;20290;-63
2021/12/06 12:20:35;;;;;;;15.80;12.33;;;4.70;99.90;;;;;;4998322;28;20230;-63
2021/12/06 12:23:07;;;;;;;16.67;12.30;;;4.90;99.90;;;;;;4998049;28;20207;-63
2021/12/06 12:25:38;;;;;;;12.67;11.37;;;5.20;99.90;;;;;;5015718;28;20344;-63
2021/12/06 12:28:50;;;;;;;14.87;12.37;;;5.80;99.90;;;;;;5015980;28;20191;-63
2021/12/06 12:30:57;;;;;;;15.00;11.87;;;6.20;99.90;;;;;;5007812;28;20258;-63
2021/12/06 12:33:23;;;;;;;14.93;11.40;;;6.40;99.90;;;;;;4997936;28;20214;-63
2021/12/06 12:35:53;;;;;;;13.77;11.23;;;6.60;99.90;;;;;;4997901;28;20650;-63
2021/12/06 12:38:28;;;;;;;16.10;12.13;;;6.50;99.90;;;;;;5015292;28;20636;-63
2021/12/06 12:41:01;;;;;;;14.30;11.00;;;6.80;99.90;;;;;;4997849;28;20549;-63
2021/12/06 12:43:52;;;;;;;15.13;10.90;;;6.90;99.90;;;;;;5015195;28;20198;-63
2021/12/06 12:46:23;;;;;;;13.73;10.93;;;7.10;99.90;;;;;;5014342;28;20561;-63
2021/12/06 12:48:58;;;;;;;12.07;10.27;;;7.00;99.90;;;;;;5015733;28;20234;-63
2021/12/06 12:51:32;;;;;;;13.93;10.40;;;7.00;99.90;;;;;;5015229;28;20179;-63
2021/12/06 12:54:01;;;;;;;11.17;9.80;;;6.90;99.90;;;;;;5015596;28;20218;-63
2021/12/06 12:56:34;;;;;;;13.30;11.07;;;6.60;99.90;;;;;;5015081;28;20654;-63
2021/12/06 12:59:20;;;;;;;12.13;10.80;;;6.30;99.90;;;;;;4997458;28;20206;-63
2021/12/06 13:02:20;;;;;;;12.80;10.23;;;5.90;99.90;;;;;;5014833;28;20717;-62